createdAt,value
2019-06-10T00:00:18.246Z,14.40
2019-06-10T00:02:48.154Z,14.40
2019-06-10T00:05:17.952Z,14.30
2019-06-10T00:07:47.737Z,14.20
2019-06-10T00:10:18.407Z,14.30
2019-06-10T00:12:51.738Z,14.30
2019-06-10T00:15:21.507Z,14.40
2019-06-10T00:18:07.028Z,14.60
2019-06-10T00:20:22.949Z,14.70
2019-06-10T00:22:53.910Z,14.80
2019-06-10T00:25:23.669Z,14.90
2019-06-10T00:27:53.446Z,15.00
2019-06-10T00:30:23.222Z,15.10
2019-06-10T00:32:52.982Z,15.10
2019-06-10T00:35:23.848Z,15.20
2019-06-10T00:37:53.626Z,15.20
2019-06-10T00:40:23.302Z,15.30
2019-06-10T00:42:53.037Z,15.30
2019-06-10T00:45:22.864Z,15.20
2019-06-10T00:48:07.650Z,15.20
2019-06-10T00:50:23.941Z,15.20
2019-06-10T00:52:53.682Z,15.20
2019-06-10T00:55:23.379Z,15.20
2019-06-10T00:57:53.073Z,15.20
2019-06-10T01:00:25.468Z,15.10
2019-06-10T01:02:54.310Z,15.00
2019-06-10T01:05:24.011Z,15.00
2019-06-10T01:07:53.713Z,14.90
2019-06-10T01:10:23.610Z,14.90
2019-06-10T01:12:53.330Z,14.90
2019-06-10T01:15:23.012Z,15.00
2019-06-10T01:17:52.721Z,15.00
2019-06-10T01:20:22.529Z,14.90
2019-06-10T01:22:52.325Z,14.90
2019-06-10T01:25:22.011Z,14.80
2019-06-10T01:27:51.725Z,14.90
2019-06-10T01:30:26.476Z,14.80
2019-06-10T01:32:52.953Z,14.80
2019-06-10T01:35:22.642Z,14.80
2019-06-10T01:37:52.405Z,14.80
2019-06-10T01:40:22.194Z,14.80
2019-06-10T01:42:52.042Z,14.80
2019-06-10T01:45:21.750Z,14.90
2019-06-10T01:47:51.539Z,15.00
2019-06-10T01:50:21.856Z,15.00
2019-06-10T01:52:52.953Z,15.10
2019-06-10T01:55:22.798Z,15.10
2019-06-10T01:57:54.617Z,15.10
2019-06-10T02:00:31.170Z,15.10
2019-06-10T02:03:03.346Z,15.20
2019-06-10T02:05:32.475Z,15.50
2019-06-10T02:08:02.184Z,15.60
2019-06-10T02:10:31.943Z,15.60
2019-06-10T02:13:01.639Z,15.60
2019-06-10T02:15:31.550Z,15.60
2019-06-10T02:18:01.414Z,15.60
2019-06-10T02:20:31.753Z,15.70
2019-06-10T02:23:01.999Z,15.70
2019-06-10T02:25:31.867Z,15.60
2019-06-10T02:28:01.561Z,15.60
2019-06-10T02:30:41.701Z,15.50
2019-06-10T02:33:02.758Z,15.50
2019-06-10T02:35:43.251Z,15.50
2019-06-10T02:38:04.053Z,15.60
2019-06-10T02:40:36.536Z,15.60
2019-06-10T02:43:05.975Z,15.70
2019-06-10T02:45:37.467Z,15.70
2019-06-10T02:48:07.263Z,15.80
2019-06-10T02:51:04.065Z,15.80
2019-06-10T02:53:36.422Z,15.80
2019-06-10T02:56:07.246Z,15.80
2019-06-10T02:58:39.394Z,15.80
2019-06-10T03:01:09.022Z,15.80
2019-06-10T03:03:44.210Z,15.80
2019-06-10T03:06:13.822Z,15.80
2019-06-10T03:08:43.609Z,15.80
2019-06-10T03:11:14.058Z,15.90
2019-06-10T03:13:44.158Z,15.90
2019-06-10T03:16:38.971Z,15.80
2019-06-10T03:19:08.757Z,15.80
2019-06-10T03:21:38.536Z,15.80
2019-06-10T03:24:08.252Z,15.70
2019-06-10T03:26:38.015Z,15.60
2019-06-10T03:29:07.798Z,15.60
2019-06-10T03:31:43.202Z,15.50
2019-06-10T03:34:08.931Z,15.50
2019-06-10T03:36:39.775Z,15.50
2019-06-10T03:39:09.713Z,15.60
2019-06-10T03:41:39.514Z,15.60
2019-06-10T03:44:09.285Z,15.50
2019-06-10T03:46:38.981Z,15.50
2019-06-10T03:49:08.752Z,15.50
2019-06-10T03:51:38.634Z,15.60
2019-06-10T03:54:08.485Z,15.60
2019-06-10T03:56:38.262Z,15.50
2019-06-10T03:59:07.975Z,15.50
2019-06-10T04:01:37.771Z,15.50
2019-06-10T04:04:07.522Z,15.50
2019-06-10T04:06:37.226Z,15.50
2019-06-10T04:09:07.285Z,15.60
2019-06-10T04:11:36.969Z,15.60
2019-06-10T04:14:06.665Z,15.50
2019-06-10T04:16:37.413Z,15.60
2019-06-10T04:19:08.189Z,15.60
2019-06-10T04:21:37.871Z,15.60
2019-06-10T04:24:07.649Z,15.50
2019-06-10T04:26:37.413Z,15.50
2019-06-10T04:29:07.181Z,15.40
2019-06-10T04:31:36.865Z,15.40
2019-06-10T04:34:06.565Z,15.50
2019-06-10T04:36:36.312Z,15.50
2019-06-10T04:39:06.937Z,15.60
2019-06-10T04:41:36.698Z,15.70
2019-06-10T04:44:06.397Z,15.70
2019-06-10T04:46:36.228Z,15.90
2019-06-10T04:49:05.929Z,16.00
2019-06-10T04:51:35.668Z,16.20
2019-06-10T04:54:05.597Z,16.30
2019-06-10T04:56:35.382Z,16.50
2019-06-10T04:59:05.145Z,16.60
2019-06-10T05:01:34.989Z,16.90
2019-06-10T05:04:04.906Z,17.20
2019-06-10T05:06:34.593Z,17.40
2019-06-10T05:09:05.649Z,17.40
2019-06-10T05:11:35.335Z,17.40
2019-06-10T05:14:06.118Z,17.30
2019-06-10T05:16:36.171Z,17.40
2019-06-10T05:19:05.986Z,17.60
2019-06-10T05:21:35.751Z,17.90
2019-06-10T05:24:05.582Z,18.00
2019-06-10T05:26:35.301Z,18.10
2019-06-10T05:29:05.125Z,18.10
2019-06-10T05:31:35.351Z,18.30
2019-06-10T05:34:05.353Z,18.40
2019-06-10T05:36:35.123Z,18.50
2019-06-10T05:39:06.949Z,18.50
2019-06-10T05:41:36.660Z,18.60
2019-06-10T05:44:06.413Z,18.70
2019-06-10T05:46:36.161Z,18.70
2019-06-10T05:49:05.910Z,18.60
2019-06-10T05:51:35.614Z,18.50
2019-06-10T05:54:05.373Z,18.30
2019-06-10T05:56:35.683Z,18.10
2019-06-10T05:59:05.654Z,18.00
2019-06-10T06:01:38.271Z,17.90
2019-06-10T06:04:06.818Z,17.90
2019-06-10T06:06:37.510Z,18.00
2019-06-10T06:09:08.601Z,18.00
2019-06-10T06:11:38.430Z,18.10
2019-06-10T06:14:08.309Z,18.20
2019-06-10T06:16:38.326Z,18.20
2019-06-10T06:19:09.444Z,18.20
2019-06-10T06:21:44.730Z,18.20
2019-06-10T06:24:12.860Z,18.10
2019-06-10T06:26:43.225Z,18.30
2019-06-10T06:29:13.313Z,18.60
2019-06-10T06:31:43.247Z,18.90
2019-06-10T06:34:14.059Z,19.10
2019-06-10T06:36:44.026Z,19.20
2019-06-10T06:39:13.713Z,19.20
2019-06-10T06:41:43.437Z,19.20
2019-06-10T06:44:19.256Z,19.10
2019-06-10T06:46:48.971Z,19.10
2019-06-10T06:49:18.725Z,19.20
2019-06-10T06:51:55.169Z,19.30
2019-06-10T06:54:19.830Z,19.30
2019-06-10T06:56:49.593Z,19.40
2019-06-10T06:59:22.274Z,19.40
2019-06-10T07:01:52.468Z,19.50
2019-06-10T07:04:23.530Z,19.40
2019-06-10T07:06:55.667Z,19.40
2019-06-10T07:09:26.098Z,19.40
2019-06-10T07:11:58.689Z,19.50
2019-06-10T07:14:31.950Z,19.70
2019-06-10T07:17:03.962Z,19.80
2019-06-10T07:19:36.306Z,19.90
2019-06-10T07:22:11.692Z,19.80
2019-06-10T07:24:38.759Z,19.80
2019-06-10T07:27:06.861Z,20.00
2019-06-10T07:29:38.569Z,20.20
2019-06-10T07:32:08.004Z,20.50
2019-06-10T07:34:38.817Z,21.00
2019-06-10T07:37:09.158Z,21.20
2019-06-10T07:39:39.568Z,21.00
2019-06-10T07:42:10.385Z,20.70
2019-06-10T07:44:43.153Z,20.60
2019-06-10T07:47:12.838Z,20.50
2019-06-10T07:49:45.231Z,20.30
2019-06-10T07:52:19.725Z,20.20
2019-06-10T07:54:49.844Z,20.20
2019-06-10T07:57:19.535Z,20.10
2019-06-10T07:59:49.274Z,19.90
2019-06-10T08:02:20.054Z,19.90
2019-06-10T08:04:49.847Z,19.80
2019-06-10T08:07:25.420Z,20.00
2019-06-10T08:09:55.126Z,20.00
2019-06-10T08:12:25.926Z,20.00
2019-06-10T08:14:55.880Z,20.10
2019-06-10T08:17:27.707Z,20.10
2019-06-10T08:20:18.689Z,20.10
2019-06-10T08:22:54.004Z,20.20
2019-06-10T08:25:20.036Z,20.50
2019-06-10T08:28:13.379Z,20.80
2019-06-10T08:30:48.580Z,21.00
2019-06-10T08:33:42.562Z,21.10
2019-06-10T08:36:17.778Z,21.30
2019-06-10T08:38:52.715Z,21.40
2019-06-10T08:41:23.131Z,21.50
2019-06-10T08:43:55.266Z,21.40
2019-06-10T08:46:26.161Z,21.40
2019-06-10T08:48:55.952Z,21.20
2019-06-10T08:51:37.804Z,21.20
2019-06-10T08:54:07.719Z,21.40
2019-06-10T08:56:54.094Z,21.50
2019-06-10T08:59:23.547Z,21.50
2019-06-10T09:01:56.927Z,21.40
2019-06-10T09:04:29.440Z,21.30
2019-06-10T09:07:04.309Z,21.10
2019-06-10T09:09:40.435Z,21.00
2019-06-10T09:12:28.357Z,21.10
2019-06-10T09:14:43.979Z,21.30
2019-06-10T09:17:13.327Z,21.50
2019-06-10T09:19:46.437Z,21.80
2019-06-10T09:22:16.773Z,21.90
2019-06-10T09:24:50.449Z,21.90
2019-06-10T09:27:17.932Z,21.80
2019-06-10T09:29:50.673Z,21.80
2019-06-10T09:32:19.174Z,22.00
2019-06-10T09:34:52.753Z,21.90
2019-06-10T09:37:20.247Z,21.70
2019-06-10T09:39:58.027Z,21.50
2019-06-10T09:42:23.860Z,21.60
2019-06-10T09:44:55.589Z,21.70
2019-06-10T09:47:24.472Z,22.00
2019-06-10T09:49:55.611Z,22.40
2019-06-10T09:52:25.621Z,22.70
2019-06-10T09:54:56.889Z,22.80
2019-06-10T09:57:26.872Z,22.60
2019-06-10T09:59:56.863Z,22.50
2019-06-10T10:02:27.702Z,22.20
2019-06-10T10:04:58.599Z,22.20
2019-06-10T10:07:32.310Z,22.30
2019-06-10T10:10:04.182Z,22.40
2019-06-10T10:12:34.418Z,22.40
2019-06-10T10:15:22.533Z,22.30
2019-06-10T10:17:36.233Z,22.00
2019-06-10T10:20:06.665Z,22.10
2019-06-10T10:22:36.370Z,22.00
2019-06-10T10:25:06.347Z,22.10
2019-06-10T10:27:37.139Z,22.30
2019-06-10T10:30:09.778Z,22.60
2019-06-10T10:32:39.484Z,22.90
2019-06-10T10:35:09.432Z,23.00
2019-06-10T10:37:39.147Z,23.10
2019-06-10T10:40:08.977Z,23.30
2019-06-10T10:42:44.802Z,23.30
2019-06-10T10:45:10.246Z,23.20
2019-06-10T10:47:39.966Z,23.10
2019-06-10T10:50:13.922Z,23.30
2019-06-10T10:52:44.240Z,23.30
2019-06-10T10:55:16.670Z,23.50
2019-06-10T10:57:49.372Z,23.70
2019-06-10T11:00:22.628Z,23.90
2019-06-10T11:02:53.063Z,23.60
2019-06-10T11:05:36.130Z,23.70
2019-06-10T11:08:06.737Z,23.80
2019-06-10T11:10:36.705Z,23.70
2019-06-10T11:13:08.486Z,23.40
2019-06-10T11:15:38.375Z,23.30
2019-06-10T11:18:08.759Z,23.40
2019-06-10T11:20:39.706Z,23.70
2019-06-10T11:23:09.493Z,23.70
2019-06-10T11:25:39.344Z,23.90
2019-06-10T11:28:09.194Z,23.90
2019-06-10T11:30:38.994Z,23.80
2019-06-10T11:33:08.819Z,23.80
2019-06-10T11:35:39.772Z,24.00
2019-06-10T11:38:09.550Z,23.70
2019-06-10T11:40:39.407Z,23.50
2019-06-10T11:43:09.318Z,23.50
2019-06-10T11:45:47.401Z,23.70
2019-06-10T11:48:12.815Z,23.80
2019-06-10T11:50:42.835Z,23.90
2019-06-10T11:53:13.786Z,24.00
2019-06-10T11:55:45.006Z,24.20
2019-06-10T11:58:15.061Z,24.40
2019-06-10T12:00:44.821Z,24.60
2019-06-10T12:03:16.290Z,24.70
2019-06-10T12:05:46.069Z,24.70
2019-06-10T12:08:18.251Z,24.60
2019-06-10T12:10:49.024Z,24.40
2019-06-10T12:13:18.969Z,24.40
2019-06-10T12:16:20.653Z,24.30
2019-06-10T12:18:22.711Z,24.40
2019-06-10T12:20:59.669Z,24.40
2019-06-10T12:23:33.570Z,24.80
2019-06-10T12:26:04.842Z,24.80
2019-06-10T12:28:36.149Z,24.70
2019-06-10T12:31:07.422Z,24.60
2019-06-10T12:33:38.532Z,24.60
2019-06-10T12:36:08.426Z,24.70
2019-06-10T12:38:38.187Z,24.80
2019-06-10T12:41:10.299Z,24.70
2019-06-10T12:43:39.626Z,25.00
2019-06-10T12:46:09.481Z,25.00
2019-06-10T12:48:49.830Z,24.80
2019-06-10T12:57:06.973Z,25.00
2019-06-10T12:59:43.023Z,25.00
2019-06-10T13:02:22.708Z,24.90
2019-06-10T13:04:44.756Z,24.70
2019-06-10T13:07:16.991Z,24.80
2019-06-10T13:09:47.013Z,24.80
2019-06-10T13:12:16.734Z,24.90
2019-06-10T13:14:48.492Z,24.80
2019-06-10T13:17:18.050Z,24.60
2019-06-10T13:19:47.793Z,24.30
2019-06-10T13:22:17.641Z,24.30
2019-06-10T13:24:47.389Z,24.20
2019-06-10T13:27:17.094Z,24.30
2019-06-10T13:29:46.827Z,24.30
2019-06-10T13:32:16.589Z,24.30
2019-06-10T13:34:46.293Z,24.70
2019-06-10T13:37:16.377Z,25.10
2019-06-10T13:39:46.282Z,25.10
2019-06-10T13:42:16.010Z,25.30
2019-06-10T13:44:45.734Z,25.30
2019-06-10T13:47:17.153Z,25.30
2019-06-10T13:49:46.934Z,25.10
2019-06-10T13:52:17.527Z,25.00
2019-06-10T13:54:47.308Z,24.90
2019-06-10T13:57:17.034Z,24.90
2019-06-10T13:59:46.894Z,25.20
2019-06-10T14:02:16.712Z,25.40
2019-06-10T14:04:46.489Z,25.40
2019-06-10T14:07:17.399Z,25.10
2019-06-10T14:09:48.817Z,25.00
2019-06-10T14:12:18.624Z,24.70
2019-06-10T14:14:48.339Z,24.40
2019-06-10T14:17:19.512Z,24.10
2019-06-10T14:19:49.608Z,24.20
2019-06-10T14:22:19.389Z,24.50
2019-06-10T14:24:49.143Z,24.90
2019-06-10T14:27:21.499Z,25.50
2019-06-10T14:29:52.746Z,26.00
2019-06-10T14:32:22.355Z,25.70
2019-06-10T14:34:52.769Z,25.20
2019-06-10T14:37:35.086Z,25.00
2019-06-10T14:39:54.193Z,24.80
2019-06-10T14:42:24.616Z,24.60
2019-06-10T14:44:54.564Z,24.20
2019-06-10T14:47:24.497Z,24.00
2019-06-10T14:49:54.428Z,24.20
2019-06-10T14:52:26.586Z,24.50
2019-06-10T14:54:57.662Z,24.60
2019-06-10T14:57:29.754Z,24.20
2019-06-10T14:59:59.467Z,23.80
2019-06-10T15:02:29.354Z,23.50
2019-06-10T15:04:59.053Z,23.20
2019-06-10T15:07:28.766Z,23.10
2019-06-10T15:09:58.614Z,22.80
2019-06-10T15:12:28.479Z,22.30
2019-06-10T15:14:58.262Z,22.30
2019-06-10T15:17:27.985Z,22.40
2019-06-10T15:19:57.877Z,22.60
2019-06-10T15:22:27.698Z,22.80
2019-06-10T15:24:57.478Z,22.80
2019-06-10T15:27:30.613Z,22.80
2019-06-10T15:29:58.649Z,22.80
2019-06-10T15:32:34.585Z,22.60
2019-06-10T15:34:59.766Z,22.60
2019-06-10T15:37:29.543Z,22.50
2019-06-10T15:39:59.319Z,22.50
2019-06-10T15:42:29.162Z,22.50
2019-06-10T15:44:59.061Z,22.60
2019-06-10T15:47:28.932Z,22.60
2019-06-10T15:49:58.773Z,22.50
2019-06-10T15:52:28.546Z,22.50
2019-06-10T15:54:58.331Z,22.40
2019-06-10T15:57:39.339Z,22.20
2019-06-10T15:59:59.523Z,21.90
2019-06-10T16:02:29.211Z,21.70
2019-06-10T16:04:58.969Z,21.60
2019-06-10T16:07:28.658Z,21.40
2019-06-10T16:09:58.357Z,21.50
2019-06-10T16:12:28.127Z,21.40
2019-06-10T16:14:57.873Z,21.40
2019-06-10T16:17:30.069Z,21.40
2019-06-10T16:19:59.034Z,21.10
2019-06-10T16:22:28.837Z,21.10
2019-06-10T16:24:58.549Z,20.90
2019-06-10T16:27:43.476Z,20.80
2019-06-10T16:29:59.643Z,20.70
2019-06-10T16:32:32.890Z,20.60
2019-06-10T16:35:03.978Z,20.60
2019-06-10T16:37:33.409Z,20.50
2019-06-10T16:40:03.436Z,20.50
2019-06-10T16:42:33.260Z,20.40
2019-06-10T16:45:03.165Z,20.40
2019-06-10T16:47:32.952Z,20.30
2019-06-10T16:50:03.348Z,20.20
2019-06-10T16:52:34.322Z,20.10
2019-06-10T16:55:05.581Z,20.00
2019-06-10T16:57:35.426Z,20.00
2019-06-10T17:00:11.331Z,20.00
2019-06-10T17:02:37.310Z,20.10
2019-06-10T17:05:08.611Z,20.10
2019-06-10T17:07:38.502Z,20.00
2019-06-10T17:10:09.739Z,20.00
2019-06-10T17:12:39.518Z,20.00
2019-06-10T17:15:09.986Z,19.90
2019-06-10T17:17:39.833Z,20.00
2019-06-10T17:20:13.038Z,20.00
2019-06-10T17:22:43.483Z,20.00
2019-06-10T17:25:13.619Z,20.00
2019-06-10T17:27:43.443Z,20.00
2019-06-10T17:30:13.390Z,20.00
2019-06-10T17:32:43.110Z,20.00
2019-06-10T17:35:12.950Z,19.90
2019-06-10T17:37:43.245Z,19.90
2019-06-10T17:40:14.225Z,19.90
2019-06-10T17:42:43.949Z,19.90
2019-06-10T17:45:14.357Z,19.90
2019-06-10T17:47:44.516Z,19.80
2019-06-10T17:50:14.498Z,19.80
2019-06-10T17:52:53.241Z,19.80
2019-06-10T17:55:24.884Z,19.70
2019-06-10T17:57:53.424Z,19.60
2019-06-10T18:00:25.932Z,19.60
2019-06-10T18:02:54.814Z,19.60
2019-06-10T18:05:25.298Z,19.50
2019-06-10T18:07:55.310Z,19.40
2019-06-10T18:10:25.593Z,19.40
2019-06-10T18:12:56.378Z,19.40
2019-06-10T18:15:26.156Z,19.30
2019-06-10T18:17:56.032Z,19.10
2019-06-10T18:20:26.466Z,19.10
2019-06-10T18:22:56.219Z,19.00
2019-06-10T18:25:26.620Z,18.90
2019-06-10T18:27:58.467Z,18.90
2019-06-10T18:30:29.488Z,18.80
2019-06-10T18:32:59.470Z,18.60
2019-06-10T18:35:37.509Z,18.50
2019-06-10T18:38:06.574Z,18.30
2019-06-10T18:40:36.318Z,18.30
2019-06-10T18:43:06.323Z,18.30
2019-06-10T18:45:38.624Z,18.30
2019-06-10T18:48:08.633Z,18.40
2019-06-10T18:50:43.215Z,18.30
2019-06-10T18:53:13.133Z,18.30
2019-06-10T18:55:43.635Z,18.30
2019-06-10T18:58:13.486Z,18.30
2019-06-10T19:00:57.019Z,18.20
2019-06-10T19:03:16.740Z,18.20
2019-06-10T19:05:46.738Z,18.10
2019-06-10T19:08:16.508Z,18.10
2019-06-10T19:10:46.277Z,18.10
2019-06-10T19:13:15.965Z,18.00
2019-06-10T19:15:45.682Z,18.00
2019-06-10T19:18:15.620Z,18.00
2019-06-10T19:20:45.414Z,17.90
2019-06-10T19:23:16.578Z,17.80
2019-06-10T19:25:47.526Z,17.70
2019-06-10T19:28:17.218Z,17.60
2019-06-10T19:30:47.028Z,17.40
2019-06-10T19:33:16.798Z,17.40
2019-06-10T19:35:46.641Z,17.30
2019-06-10T19:38:16.411Z,17.20
2019-06-10T19:40:46.185Z,17.00
2019-06-10T19:43:16.950Z,16.90
2019-06-10T19:45:46.944Z,16.70
2019-06-10T19:48:16.734Z,16.60
2019-06-10T19:50:50.200Z,16.60
2019-06-10T19:53:17.870Z,16.50
2019-06-10T19:55:47.643Z,16.40
2019-06-10T19:58:17.531Z,16.40
2019-06-10T20:00:51.084Z,16.40
2019-06-10T20:03:22.193Z,16.40
2019-06-10T20:05:52.878Z,16.40
2019-06-10T20:08:34.611Z,16.40
2019-06-10T20:11:04.992Z,16.40
2019-06-10T20:13:38.545Z,16.30
2019-06-10T20:16:12.077Z,16.30
2019-06-10T20:18:47.592Z,16.40
2019-06-10T20:21:18.515Z,16.50
2019-06-10T20:23:49.326Z,16.60
2019-06-10T20:26:22.419Z,16.60
2019-06-10T20:28:54.899Z,16.60
2019-06-10T20:31:23.229Z,16.60
2019-06-10T20:33:52.929Z,16.70
2019-06-10T20:36:26.900Z,16.70
2019-06-10T20:38:54.146Z,16.70
2019-06-10T20:41:23.904Z,16.70
2019-06-10T20:43:55.574Z,16.70
2019-06-10T20:46:25.157Z,16.60
2019-06-10T20:48:54.943Z,16.50
2019-06-10T20:51:27.015Z,16.50
2019-06-10T20:53:56.033Z,16.30
2019-06-10T20:56:25.850Z,16.30
2019-06-10T20:58:55.649Z,16.20
2019-06-10T21:01:25.735Z,16.10
2019-06-10T21:03:55.562Z,16.00
2019-06-10T21:06:26.935Z,15.90
2019-06-10T21:08:56.766Z,15.90
2019-06-10T21:11:26.468Z,15.80
2019-06-10T21:13:56.191Z,15.70
2019-06-10T21:16:25.959Z,15.70
2019-06-10T21:18:55.929Z,15.70
2019-06-10T21:21:32.637Z,15.80
2019-06-10T21:24:02.535Z,15.80
2019-06-10T21:26:32.627Z,15.70
2019-06-10T21:29:03.832Z,15.70
2019-06-10T21:31:36.769Z,15.70
2019-06-10T21:34:06.621Z,15.70
2019-06-10T21:36:37.345Z,15.60
2019-06-10T21:39:08.212Z,15.50
2019-06-10T21:41:37.938Z,15.40
2019-06-10T21:44:07.722Z,15.30
2019-06-10T21:46:37.439Z,15.20
2019-06-10T21:49:07.146Z,15.10
2019-06-10T21:51:39.942Z,15.10
2019-06-10T21:54:11.945Z,15.00
2019-06-10T21:56:43.125Z,15.00
2019-06-10T21:59:12.709Z,15.00
2019-06-10T22:01:44.260Z,15.10
2019-06-10T22:04:13.838Z,15.10
2019-06-10T22:06:43.876Z,15.10
2019-06-10T22:09:13.739Z,15.10
2019-06-10T22:11:43.902Z,15.10
2019-06-10T22:14:13.677Z,15.00
2019-06-10T22:16:44.203Z,15.00
2019-06-10T22:19:13.978Z,14.90
2019-06-10T22:21:44.608Z,14.90
2019-06-10T22:24:14.407Z,14.90
2019-06-10T22:26:44.739Z,14.90
2019-06-10T22:29:14.613Z,14.90
2019-06-10T22:31:45.209Z,14.80
2019-06-10T22:34:15.221Z,14.90
2019-06-10T22:36:45.501Z,14.90
2019-06-10T22:39:15.289Z,14.90
2019-06-10T22:41:45.041Z,14.80
2019-06-10T22:44:15.818Z,14.80
2019-06-10T22:46:45.506Z,14.70
2019-06-10T22:49:23.503Z,14.70
2019-06-10T22:51:54.522Z,14.70
2019-06-10T22:54:24.131Z,14.70
2019-06-10T22:56:54.831Z,14.60
2019-06-10T22:59:25.318Z,14.60
2019-06-10T23:01:56.580Z,14.60
2019-06-10T23:04:26.489Z,14.60
2019-06-10T23:06:57.684Z,14.50
2019-06-10T23:09:27.606Z,14.60
2019-06-10T23:11:57.764Z,14.70
2019-06-10T23:14:28.677Z,14.70
2019-06-10T23:16:59.934Z,14.80
2019-06-10T23:19:29.799Z,14.90
2019-06-10T23:22:00.127Z,14.90
2019-06-10T23:24:32.179Z,15.00
2019-06-10T23:27:03.208Z,15.10
2019-06-10T23:29:34.550Z,15.10
2019-06-10T23:32:07.167Z,15.10
2019-06-10T23:34:36.911Z,15.10
2019-06-10T23:37:06.590Z,15.20
2019-06-10T23:39:36.348Z,15.20
2019-06-10T23:42:06.217Z,15.20
2019-06-10T23:44:35.906Z,15.20
2019-06-10T23:47:05.698Z,15.10
2019-06-10T23:49:35.403Z,15.00
2019-06-10T23:52:05.691Z,15.00
2019-06-10T23:54:36.556Z,15.00
2019-06-10T23:57:06.542Z,14.90
2019-06-10T23:59:36.466Z,14.80
